Terminal Aerodrome Forecast
Issued by NWS

Home | Current Version | Previous Version | Text Only | Print | Product List | Glossary On
Versions: 1 2 3 4 5 6 7 8 9 10 11 12 13 14 15 16 17 18 19 20 21 22
000
FTPA31 PHFO 180500
TAFKOA
TAF
PHKO 180536Z 1806/1906 12015KT P6SM VCSH SCT020 BKN050
      TEMPO 1806/1808 BKN020
     FM180800 11006KT P6SM FEW050
     FM182000 23009KT P6SM SCT060=

USA.gov is the U.S. government's official web portal to all federal, state and local government web resources and services.